Time;durP1;ratioP1;P1;durP2;ratioP2;P2;SDS_P1;SDS_P2;PMS_P1;PMS_P2;Temp;Humidity;BMP_temperature;BMP_pressure;BME280_temperature;BME280_humidity;BME280_pressure;Samples;Min_cycle;Max_cycle;Signal;HPM_P1;HPM_P2
2023/10/09 00:05:45;;;;;;;5.00;3.13;;;;;;;17.22;77.38;100693.28;10333473;28;20418;-54
2023/10/09 00:10:54;;;;;;;3.85;2.40;;;;;;;17.23;77.43;100694.94;10336515;28;20053;-54
2023/10/09 00:16:01;;;;;;;4.30;2.85;;;;;;;17.21;77.41;100685.38;10337230;28;20064;-55
2023/10/09 00:21:12;;;;;;;5.63;3.17;;;;;;;17.11;77.81;100669.31;10339443;28;20046;-55
2023/10/09 00:26:17;;;;;;;5.50;3.20;;;;;;;17.15;78.50;100676.06;10337040;28;20474;-54
2023/10/09 00:31:33;;;;;;;6.03;2.95;;;;;;;17.09;80.00;100676.69;10334732;28;20601;-54
2023/10/09 00:36:49;;;;;;;3.83;2.25;;;;;;;16.96;79.90;100663.63;10334041;28;20465;-54
2023/10/09 00:41:53;;;;;;;3.38;2.25;;;;;;;16.95;77.74;100660.09;10338049;28;20477;-53
2023/10/09 00:47:07;;;;;;;5.43;2.47;;;;;;;16.90;77.54;100643.59;10332907;28;20148;-55
2023/10/09 00:52:17;;;;;;;3.70;2.40;;;;;;;16.87;78.11;100630.44;10338741;28;20089;-55
2023/10/09 00:57:24;;;;;;;5.15;2.33;;;;;;;16.91;78.05;100620.25;10348552;28;20064;-55
2023/10/09 01:02:35;;;;;;;3.58;2.55;;;;;;;16.91;77.93;100610.31;10344068;28;20054;-54
2023/10/09 01:07:40;;;;;;;5.00;2.40;;;;;;;16.93;78.33;100615.53;10338270;28;20588;-53
2023/10/09 01:12:44;;;;;;;3.35;2.13;;;;;;;16.98;78.55;100621.31;10345590;28;20065;-53
2023/10/09 01:17:47;;;;;;;4.32;2.55;;;;;;;16.98;78.87;100610.56;10336998;28;20498;-58
2023/10/09 01:22:50;;;;;;;2.88;2.10;;;;;;;17.02;78.02;100616.44;10333827;28;20046;-53
2023/10/09 01:27:52;;;;;;;4.03;2.73;;;;;;;17.02;79.12;100616.44;10341027;28;20052;-55
2023/10/09 01:32:57;;;;;;;5.18;2.85;;;;;;;16.91;79.23;100602.25;10347480;28;20497;-54
2023/10/09 01:37:59;;;;;;;6.00;3.05;;;;;;;17.02;79.79;100608.38;10338719;28;20065;-53
2023/10/09 01:43:03;;;;;;;5.55;2.55;;;;;;;16.98;79.40;100605.19;10338967;28;20131;-54
2023/10/09 01:48:05;;;;;;;4.47;2.70;;;;;;;16.88;79.26;100594.50;10334632;28;20046;-55
2023/10/09 01:53:07;;;;;;;4.32;2.72;;;;;;;16.92;79.03;100606.66;10335288;28;20056;-53
2023/10/09 01:58:16;;;;;;;4.72;2.83;;;;;;;16.92;80.21;100611.19;10334064;28;20052;-54
2023/10/09 02:03:18;;;;;;;5.70;3.10;;;;;;;16.89;79.80;100606.97;10339362;28;20058;-54
2023/10/09 02:08:26;;;;;;;5.47;3.53;;;;;;;16.87;79.78;100610.78;10336968;28;20088;-54
2023/10/09 02:13:34;;;;;;;5.72;3.50;;;;;;;16.86;79.26;100617.13;10353618;28;20049;-55
2023/10/09 02:28:58;;;;;;;4.95;3.20;;;;;;;16.75;79.25;100596.72;10332670;28;20427;-55
2023/10/09 02:34:05;;;;;;;;;;;;;;;16.76;78.62;100604.63;10339000;28;20373;-56
2023/10/09 02:39:21;;;;;;;3.83;3.45;;;;;;;16.73;79.10;100602.25;10337549;28;19931;-54
2023/10/09 02:44:25;;;;;;;4.05;3.35;;;;;;;16.59;79.76;100574.09;10339921;28;20410;-55
2023/10/09 02:49:27;;;;;;;4.50;3.28;;;;;;;16.64;80.37;100575.47;10336748;28;20067;-54
2023/10/09 02:54:35;;;;;;;4.95;4.00;;;;;;;16.66;80.02;100582.34;10339972;28;20045;-54
2023/10/09 02:59:41;;;;;;;6.03;4.30;;;;;;;16.67;80.42;100578.69;10343087;28;20053;-53
2023/10/09 03:04:43;;;;;;;6.57;3.95;;;;;;;16.67;80.44;100580.53;10334832;28;20563;-54
2023/10/09 03:09:44;;;;;;;5.20;4.70;;;;;;;16.63;80.87;100560.34;10338336;28;20442;-54
2023/10/09 03:14:46;;;;;;;7.95;4.00;;;;;;;16.53;81.19;100546.97;10326659;28;20060;-54
2023/10/09 03:19:48;;;;;;;7.50;4.90;;;;;;;16.55;82.22;100551.19;10326575;28;20292;-55
2023/10/09 03:24:52;;;;;;;10.52;5.25;;;;;;;16.52;83.15;100539.94;10328273;28;20183;-54
2023/10/09 03:29:54;;;;;;;9.65;5.07;;;;;;;16.48;83.57;100536.69;10328809;28;20160;-54
2023/10/09 03:34:56;;;;;;;8.10;4.90;;;;;;;16.44;83.70;100533.50;10323762;28;20383;-54
2023/10/09 03:39:57;;;;;;;8.60;5.30;;;;;;;16.42;83.49;100534.63;10331230;28;20564;-55
2023/10/09 03:44:59;;;;;;;9.23;5.40;;;;;;;16.34;83.58;100529.19;10324786;28;20186;-54
2023/10/09 03:50:07;;;;;;;8.20;5.80;;;;;;;16.38;82.25;100535.97;10328015;28;20136;-53
2023/10/09 03:55:11;;;;;;;10.52;5.55;;;;;;;16.33;82.88;100551.69;10331825;28;20438;-55
2023/10/09 04:00:27;;;;;;;7.78;5.63;;;;;;;16.28;82.84;100549.47;10323137;28;20929;-56
2023/10/09 04:05:29;;;;;;;11.30;6.35;;;;;;;16.28;83.22;100564.75;10322027;28;20357;-55
2023/10/09 04:10:43;;;;;;;12.95;5.93;;;;;;;16.26;82.91;100556.84;10323209;28;20575;-55
2023/10/09 04:15:45;;;;;;;7.35;5.40;;;;;;;16.25;83.00;100561.34;10319009;28;20648;-55
2023/10/09 04:20:50;;;;;;;12.95;6.60;;;;;;;16.24;82.90;100557.00;10324112;28;20102;-55
2023/10/09 04:25:52;;;;;;;11.68;5.68;;;;;;;16.20;83.22;100542.16;10326335;28;20111;-55
2023/10/09 04:30:55;;;;;;;11.82;6.40;;;;;;;16.30;82.71;100549.31;10336858;28;20068;-54
2023/10/09 04:41:27;;;;;;;10.82;5.75;;;;;;;16.24;82.61;100538.19;10338273;28;20095;-54
2023/10/09 04:46:28;;;;;;;8.70;4.80;;;;;;;16.23;82.59;100541.03;10334219;28;20477;-55
2023/10/09 04:51:55;;;;;;;7.80;5.72;;;;;;;16.15;83.27;100547.13;10332924;28;20049;-56
2023/10/09 04:56:51;;;;;;;12.45;6.07;;;;;;;16.10;82.83;100541.41;10325974;28;20124;-56
2023/10/09 05:01:59;;;;;;;11.07;5.30;;;;;;;16.04;82.44;100539.31;10339643;28;20050;-55
2023/10/09 05:07:22;;;;;;;6.93;5.07;;;;;;;16.16;83.05;100556.06;10325030;28;20148;-55
2023/10/09 05:12:26;;;;;;;7.22;5.00;;;;;;;16.17;82.54;100547.84;10333152;28;20053;-54
2023/10/09 05:17:28;;;;;;;9.00;5.75;;;;;;;16.10;81.72;100541.41;10328904;28;20104;-55
2023/10/09 05:22:36;;;;;;;13.93;5.90;;;;;;;16.03;81.92;100534.94;10338666;28;20049;-55
2023/10/09 05:27:50;;;;;;;11.05;5.55;;;;;;;16.07;82.41;100541.69;10342321;28;20490;-54
2023/10/09 05:38:23;;;;;;;11.93;5.50;;;;;;;16.09;81.33;100545.06;10339921;28;19961;-54
2023/10/09 05:48:54;;;;;;;9.75;5.30;;;;;;;16.11;80.93;100543.09;10334711;28;20546;-54
2023/10/09 05:54:11;;;;;;;10.02;4.78;;;;;;;16.08;80.87;100533.50;10336562;28;20057;-56
2023/10/09 06:04:49;;;;;;;9.68;5.60;;;;;;;16.18;79.75;100546.00;10339917;28;20052;-55
2023/10/09 06:09:55;;;;;;;7.63;5.35;;;;;;;16.22;79.90;100537.47;10338487;28;20270;-55
2023/10/09 06:25:50;;;;;;;11.88;5.10;;;;;;;16.48;79.03;100552.81;10342874;28;20045;-53
2023/10/09 06:30:52;;;;;;;10.77;5.00;;;;;;;16.53;79.13;100555.03;10339200;28;20052;-55
2023/10/09 06:35:53;;;;;;;8.80;4.90;;;;;;;16.62;77.75;100556.81;10336294;28;20060;-57
2023/10/09 07:16:57;;;;;;;9.90;4.83;;;;;;;16.44;78.67;100573.78;10335175;28;20045;-53
2023/10/09 07:22:03;;;;;;;9.68;5.18;;;;;;;16.55;77.61;100585.31;10333040;28;20284;-54
2023/10/09 07:27:15;;;;;;;9.30;5.20;;;;;;;16.61;77.54;100585.50;10330903;28;20119;-54
2023/10/09 07:32:21;;;;;;;10.65;5.53;;;;;;;16.64;76.91;100602.34;10346638;28;20509;-54
2023/10/09 07:37:23;;;;;;;9.02;4.55;;;;;;;16.69;76.83;100586.59;10339975;28;20154;-54
2023/10/09 07:48:04;;;;;;;14.85;4.65;;;;;;;16.74;76.78;100568.16;10334463;28;20385;-54
2023/10/09 07:53:17;;;;;;;10.05;5.57;;;;;;;16.69;77.59;100590.13;10333956;28;20041;-53
2023/10/09 07:58:26;;;;;;;8.95;4.57;;;;;;;16.75;76.94;100600.28;10337376;28;20058;-54
2023/10/09 08:03:32;;;;;;;9.20;5.60;;;;;;;16.80;76.97;100602.50;10348481;28;20049;-54
2023/10/09 08:14:01;;;;;;;12.65;5.55;;;;;;;16.76;76.00;100584.97;10342587;28;20052;-53
2023/10/09 08:24:40;;;;;;;10.07;4.63;;;;;;;16.95;76.07;100611.72;10342559;28;20068;-56
2023/10/09 08:29:47;;;;;;;9.13;4.45;;;;;;;16.94;76.11;100623.44;10349825;28;20037;-56
2023/10/09 08:34:53;;;;;;;9.15;5.15;;;;;;;16.99;75.54;100627.53;10350093;28;20041;-53
2023/10/09 08:39:58;;;;;;;11.75;5.13;;;;;;;17.03;75.62;100628.91;10345903;28;20114;-54
2023/10/09 08:45:05;;;;;;;10.77;5.25;;;;;;;17.09;76.58;100639.88;10347083;28;20466;-55
2023/10/09 08:50:13;;;;;;;18.13;5.70;;;;;;;17.10;76.37;100625.44;10337352;28;20145;-56
2023/10/09 08:55:16;;;;;;;8.90;4.40;;;;;;;17.06;76.15;100613.28;10344272;28;20580;-55
2023/10/09 09:00:23;;;;;;;14.73;6.97;;;;;;;17.28;75.78;100611.09;10337187;28;20057;-56
2023/10/09 09:05:28;;;;;;;12.57;5.00;;;;;;;17.32;75.38;100623.22;10336088;28;20049;-54
2023/10/09 09:10:36;;;;;;;7.82;4.22;;;;;;;17.38;75.34;100632.50;10337895;28;20380;-54
2023/10/09 09:15:40;;;;;;;16.02;5.38;;;;;;;17.50;75.68;100642.00;10334680;28;20077;-55
2023/10/09 09:20:45;;;;;;;;;;;;;;;17.57;75.25;100629.59;10337573;28;20069;-54
2023/10/09 09:25:48;;;;;;;11.80;5.10;;;;;;;17.55;75.40;100650.44;10333048;28;20366;-55
2023/10/09 09:30:53;;;;;;;9.23;4.60;;;;;;;17.50;75.11;100628.53;10339757;28;20058;-55
2023/10/09 09:36:04;;;;;;;12.00;5.80;;;;;;;17.45;76.04;100639.78;10331613;28;20708;-55
2023/10/09 09:41:07;;;;;;;9.13;4.78;;;;;;;17.51;76.24;100654.44;10336946;28;20049;-55
2023/10/09 09:46:11;;;;;;;13.02;4.85;;;;;;;17.59;76.36;100632.94;10336036;28;20050;-54
2023/10/09 09:51:14;;;;;;;10.30;4.50;;;;;;;17.67;75.93;100643.78;10333214;28;20053;-55
2023/10/09 09:56:21;;;;;;;11.33;5.13;;;;;;;17.75;75.92;100640.28;10336010;28;20816;-57
2023/10/09 10:01:27;;;;;;;8.98;5.35;;;;;;;17.83;75.85;100655.63;10335710;28;20060;-56
2023/10/09 10:06:32;;;;;;;11.10;5.75;;;;;;;17.87;76.14;100675.84;10337466;28;20049;-55
2023/10/09 10:11:44;;;;;;;11.60;4.38;;;;;;;17.90;75.79;100675.56;10331649;28;20060;-56
2023/10/09 10:17:18;;;;;;;10.50;5.20;;;;;;;17.95;75.35;100661.59;10332551;28;20079;-54
2023/10/09 10:22:27;;;;;;;13.27;4.93;;;;;;;17.98;75.22;100629.78;10337926;28;20078;-56
2023/10/09 10:28:00;;;;;;;12.57;5.47;;;;;;;17.95;75.52;100632.81;10332834;28;20046;-58
2023/10/09 10:33:09;;;;;;;9.93;3.92;;;;;;;17.97;76.07;100670.34;10331620;28;20559;-55
2023/10/09 10:38:34;;;;;;;13.10;5.60;;;;;;;18.10;76.15;100632.19;10336583;28;20176;-54
2023/10/09 10:43:48;;;;;;;11.75;5.20;;;;;;;18.13;76.01;100602.22;10332956;28;20156;-55
2023/10/09 10:48:58;;;;;;;8.05;4.53;;;;;;;18.19;76.27;100644.69;10331465;28;20155;-55
2023/10/09 10:54:26;;;;;;;11.05;5.00;;;;;;;18.21;76.12;100607.66;10333553;28;20396;-55
2023/10/09 10:59:24;;;;;;;12.98;5.43;;;;;;;18.45;74.67;100584.44;10333923;28;20184;-55
2023/10/09 11:10:09;;;;;;;8.55;4.40;;;;;;;18.79;72.96;100583.44;10330898;28;20049;-54
2023/10/09 11:20:32;;;;;;;11.73;4.53;;;;;;;19.12;72.02;100556.47;10330596;28;20041;-54
2023/10/09 11:25:33;;;;;;;8.70;5.20;;;;;;;19.02;71.45;100533.22;10323172;28;20060;-54
2023/10/09 11:30:35;;;;;;;13.00;4.95;;;;;;;19.30;71.18;100548.97;10329659;28;20080;-55
2023/10/09 11:35:37;;;;;;;12.73;4.70;;;;;;;19.57;70.34;100552.25;10328425;28;20053;-55
2023/10/09 11:46:10;;;;;;;10.85;4.25;;;;;;;19.86;66.15;100543.56;10332674;28;20048;-56
2023/10/09 11:51:18;;;;;;;9.32;4.90;;;;;;;19.76;67.36;100522.13;10326880;28;20522;-56
2023/10/09 11:56:27;;;;;;;10.25;4.47;;;;;;;19.74;67.51;100510.69;10327389;28;20057;-56
2023/10/09 12:01:35;;;;;;;8.70;5.10;;;;;;;19.78;66.54;100513.88;10335330;28;20123;-54
2023/10/09 12:06:37;;;;;;;8.82;4.25;;;;;;;19.93;66.83;100505.84;10330659;28;20056;-56
2023/10/09 12:11:38;;;;;;;11.98;4.45;;;;;;;20.05;65.92;100492.78;10334535;28;20080;-55
2023/10/09 12:17:07;;;;;;;7.03;4.07;;;;;;;20.06;65.64;100483.66;10326036;28;20080;-56
2023/10/09 12:22:16;;;;;;;8.00;4.50;;;;;;;19.96;65.91;100473.09;10333181;28;20052;-55
2023/10/09 12:27:20;;;;;;;9.75;4.20;;;;;;;19.82;66.35;100479.28;10324520;28;20136;-54
2023/10/09 12:32:21;;;;;;;;;;;;;;;19.82;66.84;100487.38;10333483;28;20048;-55
2023/10/09 12:37:22;;;;;;;8.80;4.22;;;;;;;19.83;66.63;100481.78;10337821;28;20059;-55
2023/10/09 12:42:24;;;;;;;10.73;4.30;;;;;;;19.84;66.44;100480.75;10334562;28;20048;-57
2023/10/09 12:47:28;;;;;;;12.73;4.88;;;;;;;19.89;66.62;100485.63;10330409;28;20052;-55
2023/10/09 12:52:30;;;;;;;11.13;4.43;;;;;;;19.94;66.15;100481.38;10343100;28;20057;-55
2023/10/09 12:57:31;;;;;;;9.77;4.43;;;;;;;20.06;66.13;100478.25;10341170;28;20136;-56
2023/10/09 13:02:33;;;;;;;9.32;4.55;;;;;;;20.12;65.53;100486.47;10338907;28;20176;-56
2023/10/09 13:07:35;;;;;;;9.40;4.75;;;;;;;20.14;65.89;100478.19;10342353;28;20059;-58
2023/10/09 13:12:41;;;;;;;8.20;3.80;;;;;;;20.28;65.94;100492.75;10337306;28;20084;-56
2023/10/09 13:17:43;;;;;;;7.50;3.75;;;;;;;20.35;66.01;100482.09;10339039;28;20341;-55
2023/10/09 13:22:47;;;;;;;6.82;4.28;;;;;;;20.36;65.40;100479.19;10336607;28;20532;-54
2023/10/09 13:27:52;;;;;;;6.35;4.00;;;;;;;20.36;65.54;100484.59;10333836;28;20061;-55
2023/10/09 13:32:53;;;;;;;8.77;4.25;;;;;;;20.41;65.61;100482.19;10338372;28;20053;-54
2023/10/09 13:37:55;;;;;;;6.43;4.28;;;;;;;20.41;64.75;100482.19;10335748;28;20056;-56
2023/10/09 13:42:59;;;;;;;11.48;4.53;;;;;;;20.37;65.38;100459.25;10335464;28;20060;-54
2023/10/09 13:48:03;;;;;;;6.28;4.18;;;;;;;20.42;65.42;100475.75;10335843;28;20184;-55
2023/10/09 13:53:10;;;;;;;7.85;3.65;;;;;;;20.45;65.44;100467.28;10335579;28;20856;-55
2023/10/09 13:58:14;;;;;;;7.40;3.40;;;;;;;20.45;64.73;100472.69;10335141;28;20056;-55
2023/10/09 14:03:19;;;;;;;10.05;4.70;;;;;;;20.44;64.48;100472.88;10339288;28;20053;-54
2023/10/09 14:08:26;;;;;;;7.82;3.50;;;;;;;20.48;64.62;100469.63;10338588;28;20163;-55
2023/10/09 14:13:28;;;;;;;11.73;5.20;;;;;;;20.49;63.16;100473.16;10335945;28;20078;-54
2023/10/09 14:18:30;;;;;;;6.07;3.38;;;;;;;20.48;63.64;100485.84;10336378;28;20464;-54
2023/10/09 14:23:34;;;;;;;8.60;3.95;;;;;;;20.44;63.57;100473.69;10341061;28;20537;-53
2023/10/09 14:28:37;;;;;;;6.90;3.65;;;;;;;20.52;63.72;100486.31;10332741;28;20067;-55
2023/10/09 14:33:40;;;;;;;8.52;4.00;;;;;;;20.53;63.64;100465.53;10332218;28;20121;-54
2023/10/09 14:38:42;;;;;;;9.65;4.40;;;;;;;20.55;63.13;100485.97;10330843;28;20101;-55
2023/10/09 14:43:43;;;;;;;5.65;3.95;;;;;;;20.54;63.83;100486.16;10333732;28;20156;-56
2023/10/09 14:48:45;;;;;;;8.40;4.10;;;;;;;20.61;64.44;100493.34;10331051;28;20053;-55
2023/10/09 14:53:49;;;;;;;8.67;3.90;;;;;;;20.65;65.10;100493.81;10335369;28;20045;-55
2023/10/09 14:58:51;;;;;;;7.07;4.47;;;;;;;20.66;64.92;100500.94;10331847;28;20498;-55
2023/10/09 15:03:55;;;;;;;8.60;4.80;;;;;;;20.51;64.74;100464.84;10333642;28;20060;-56
2023/10/09 15:08:58;;;;;;;8.75;5.35;;;;;;;20.60;65.15;100477.28;10321597;28;20053;-56
2023/10/09 15:14:00;;;;;;;8.93;4.07;;;;;;;20.63;65.01;100485.88;10338400;28;20135;-54
2023/10/09 15:19:02;;;;;;;9.27;5.72;;;;;;;20.63;64.86;100482.34;10333018;28;20486;-55
2023/10/09 15:24:04;;;;;;;9.10;4.60;;;;;;;20.62;64.95;100494.16;10331848;28;20057;-56
2023/10/09 15:29:06;;;;;;;8.50;4.45;;;;;;;20.65;65.08;100496.50;10331258;28;20065;-57
2023/10/09 15:34:08;;;;;;;5.93;4.47;;;;;;;20.65;65.13;100478.44;10329040;28;20053;-56
2023/10/09 15:39:11;;;;;;;8.40;5.00;;;;;;;20.64;64.63;100465.94;10334800;28;20994;-55
2023/10/09 15:44:13;;;;;;;7.13;4.57;;;;;;;20.68;64.76;100479.09;10333313;28;20626;-55
2023/10/09 15:49:15;;;;;;;7.60;5.20;;;;;;;20.70;65.37;100491.41;10328015;28;20630;-56
2023/10/09 15:54:19;;;;;;;12.20;5.90;;;;;;;20.71;65.06;100476.88;10330139;28;20156;-55
2023/10/09 15:59:20;;;;;;;9.30;4.70;;;;;;;20.69;64.55;100478.94;10331927;28;20064;-56
2023/10/09 16:04:22;;;;;;;8.75;4.97;;;;;;;20.69;64.50;100475.34;10341332;28;20064;-55
2023/10/09 16:09:25;;;;;;;10.80;5.05;;;;;;;20.65;64.60;100477.56;10339361;28;20131;-56
2023/10/09 16:14:27;;;;;;;8.35;5.28;;;;;;;20.58;64.90;100465.81;10338732;28;20053;-56
2023/10/09 16:19:32;;;;;;;8.77;5.07;;;;;;;20.53;65.16;100458.25;10336087;28;20129;-56
2023/10/09 16:24:35;;;;;;;13.95;5.70;;;;;;;20.56;66.42;100478.69;10344414;28;20060;-55
2023/10/09 16:29:44;;;;;;;8.25;4.90;;;;;;;20.45;66.32;100477.25;10342692;28;20140;-56
2023/10/09 16:34:46;;;;;;;10.95;6.88;;;;;;;20.46;66.17;100496.00;10341155;28;20417;-56
2023/10/09 16:39:53;;;;;;;11.27;7.50;;;;;;;20.41;66.36;100497.56;10344789;28;20056;-57
2023/10/09 16:44:56;;;;;;;12.30;7.53;;;;;;;20.23;66.70;100489.78;10342508;28;20045;-56
2023/10/09 16:49:57;;;;;;;10.53;7.37;;;;;;;20.35;66.49;100509.13;10337865;28;20136;-56
2023/10/09 16:54:59;;;;;;;12.93;7.40;;;;;;;20.30;65.70;100507.78;10335926;28;20056;-55
2023/10/09 17:00:11;;;;;;;12.20;6.60;;;;;;;20.28;65.19;100503.56;10343159;28;20045;-56
2023/10/09 17:05:13;;;;;;;12.63;7.40;;;;;;;20.28;65.55;100509.84;10342654;28;20041;-55
2023/10/09 17:10:15;;;;;;;12.73;7.55;;;;;;;20.26;65.66;100511.88;10346639;28;20493;-56
2023/10/09 17:15:16;;;;;;;9.27;6.47;;;;;;;20.23;65.31;100506.00;10343056;28;20151;-56
2023/10/09 17:20:21;;;;;;;10.43;6.20;;;;;;;20.23;64.52;100506.00;10349275;28;20057;-56
2023/10/09 17:25:23;;;;;;;7.88;5.15;;;;;;;20.25;64.00;100515.59;10345037;28;20075;-54
2023/10/09 17:30:26;;;;;;;8.00;4.88;;;;;;;20.25;63.58;100509.34;10332289;28;20101;-54
2023/10/09 17:35:31;;;;;;;7.57;4.47;;;;;;;20.26;63.73;100506.47;10339073;28;20739;-54
2023/10/09 17:40:32;;;;;;;7.95;5.15;;;;;;;20.25;64.36;100510.22;10349327;28;20506;-54
2023/10/09 17:45:41;;;;;;;10.43;6.05;;;;;;;20.21;64.71;100516.16;10340529;28;20322;-55
2023/10/09 17:50:46;;;;;;;7.18;4.70;;;;;;;20.18;65.55;100524.63;10341700;28;20493;-54
2023/10/09 17:55:52;;;;;;;8.88;6.03;;;;;;;20.12;66.19;100515.38;10344888;28;20623;-54
2023/10/09 18:00:55;;;;;;;8.23;5.78;;;;;;;19.99;67.42;100510.53;10339608;28;24832;-53
2023/10/09 18:05:59;;;;;;;9.50;5.78;;;;;;;20.04;68.80;100534.31;10327653;28;20675;-52
2023/10/09 18:11:00;;;;;;;10.32;5.68;;;;;;;19.98;69.56;100535.88;10348091;28;20463;-54
2023/10/09 18:16:11;;;;;;;8.60;5.82;;;;;;;19.85;69.59;100539.16;10347501;28;20118;-55
2023/10/09 18:21:16;;;;;;;10.70;6.75;;;;;;;19.86;70.50;100543.56;10342363;28;20060;-54
2023/10/09 18:26:19;;;;;;;10.85;6.63;;;;;;;19.66;70.61;100516.09;10341847;28;20042;-54
2023/10/09 18:31:21;;;;;;;11.88;6.85;;;;;;;19.71;70.61;100538.03;10338848;28;20050;-55
2023/10/09 18:36:22;;;;;;;12.23;7.03;;;;;;;19.71;70.68;100545.28;10338857;28;20163;-56
2023/10/09 18:41:24;;;;;;;10.05;7.05;;;;;;;19.61;71.35;100540.09;10342601;28;20132;-57
2023/10/09 18:46:26;;;;;;;9.52;7.00;;;;;;;19.63;72.55;100548.88;10338429;28;20158;-56
2023/10/09 18:51:29;;;;;;;14.52;8.40;;;;;;;19.59;72.78;100547.53;10342259;28;20992;-55
2023/10/09 18:56:35;;;;;;;;;;;;;;;19.53;73.54;100561.72;10342437;28;20050;-49
2023/10/09 19:01:37;;;;;;;11.18;7.05;;;;;;;19.51;73.40;100571.88;10340837;28;20074;-49
2023/10/09 19:06:38;;;;;;;14.60;8.02;;;;;;;19.48;73.73;100562.25;10338926;28;20057;-50
2023/10/09 19:11:41;;;;;;;11.20;7.75;;;;;;;19.47;74.37;100560.59;10344048;28;20068;-48
2023/10/09 19:16:42;;;;;;;9.95;7.45;;;;;;;19.44;74.16;100560.91;10335449;28;20049;-48
2023/10/09 19:21:46;;;;;;;10.52;7.38;;;;;;;19.41;74.68;100562.13;10344078;28;20139;-49
2023/10/09 19:26:56;;;;;;;11.68;7.57;;;;;;;19.39;74.06;100561.44;10339642;28;22647;-49
2023/10/09 19:31:57;;;;;;;13.27;7.65;;;;;;;19.35;74.46;100570.06;10325961;28;20537;-49
2023/10/09 19:36:59;;;;;;;11.40;6.75;;;;;;;19.33;75.26;100570.22;10346889;28;20154;-49
2023/10/09 19:42:01;;;;;;;13.43;7.45;;;;;;;19.31;74.83;100577.66;10334377;28;20108;-49
2023/10/09 19:47:02;;;;;;;8.90;6.80;;;;;;;19.30;74.98;100577.84;10337796;28;20080;-49
2023/10/09 19:52:05;;;;;;;11.48;6.78;;;;;;;19.27;74.48;100587.13;10337115;28;20553;-52
2023/10/09 19:57:07;;;;;;;11.30;6.97;;;;;;;19.23;74.99;100597.41;10339309;28;20359;-48
2023/10/09 20:02:09;;;;;;;10.00;6.53;;;;;;;19.20;74.56;100591.50;10344779;28;20639;-49
2023/10/09 20:07:13;;;;;;;10.90;6.82;;;;;;;19.19;74.26;100606.03;10343269;28;20131;-49
2023/10/09 20:12:15;;;;;;;13.52;9.45;;;;;;;19.15;75.13;100599.28;10342522;28;21198;-53
2023/10/09 20:17:16;;;;;;;13.48;9.57;;;;;;;19.11;74.88;100600.63;10342320;28;20053;-55
2023/10/09 20:22:18;;;;;;;12.70;9.27;;;;;;;19.04;74.37;100604.00;10341659;28;20347;-53
2023/10/09 20:27:20;;;;;;;10.63;7.80;;;;;;;19.02;75.32;100605.19;10344301;28;20057;-55
2023/10/09 20:32:21;;;;;;;13.10;7.13;;;;;;;18.90;75.75;100608.25;10346068;28;20065;-54
2023/10/09 20:37:23;;;;;;;11.50;7.40;;;;;;;18.93;75.88;100623.25;10337823;28;20136;-55
2023/10/09 20:42:25;;;;;;;11.52;6.80;;;;;;;18.84;75.44;100618.81;10351871;28;20132;-54
2023/10/09 20:47:26;;;;;;;14.70;7.93;;;;;;;18.87;75.12;100632.00;10344891;28;20346;-55
2023/10/09 20:52:28;;;;;;;9.68;6.65;;;;;;;18.82;74.25;100632.47;10341317;28;20042;-56
2023/10/09 20:57:30;;;;;;;10.02;5.90;;;;;;;18.80;73.27;100630.97;10338046;28;20056;-55
2023/10/09 21:02:31;;;;;;;7.50;5.57;;;;;;;18.73;72.92;100611.91;10343048;28;20776;-57
2023/10/09 21:07:34;;;;;;;8.53;5.97;;;;;;;18.74;71.66;100632.50;10340354;28;20057;-56
2023/10/09 21:12:36;;;;;;;6.93;5.32;;;;;;;18.68;69.74;100641.25;10341697;28;20060;-55
2023/10/09 21:17:38;;;;;;;7.10;5.53;;;;;;;18.58;69.08;100636.00;10344115;28;20054;-55
2023/10/09 21:22:42;;;;;;;10.80;6.70;;;;;;;18.55;70.21;100647.13;10338687;28;20049;-57
2023/10/09 21:27:44;;;;;;;9.45;6.00;;;;;;;18.56;72.34;100638.03;10338603;28;20057;-56
2023/10/09 21:32:47;;;;;;;9.68;6.20;;;;;;;18.42;72.93;100625.19;10351172;28;20049;-54
2023/10/09 21:37:54;;;;;;;9.70;6.70;;;;;;;18.56;73.41;100648.81;10343326;28;20053;-55
2023/10/09 21:42:59;;;;;;;10.15;6.68;;;;;;;18.48;73.08;100629.91;10344225;28;20049;-54
2023/10/09 21:48:02;;;;;;;8.65;6.45;;;;;;;18.48;73.75;100638.00;10339500;28;20803;-54
2023/10/09 21:53:07;;;;;;;7.68;6.25;;;;;;;18.49;73.47;100645.94;10337869;28;20137;-54
2023/10/09 21:58:10;;;;;;;10.00;6.55;;;;;;;18.46;73.48;100653.50;10335985;28;20057;-55
2023/10/09 22:03:12;;;;;;;9.75;6.30;;;;;;;18.34;73.64;100640.34;10344607;28;21268;-54
2023/10/09 22:08:14;;;;;;;7.95;6.15;;;;;;;18.38;73.96;100657.03;10335365;28;20053;-56
2023/10/09 22:13:18;;;;;;;10.57;5.63;;;;;;;18.35;74.25;100654.66;10340970;28;20131;-56
2023/10/09 22:18:20;;;;;;;8.05;6.25;;;;;;;18.29;74.07;100642.69;10337435;28;20053;-55
2023/10/09 22:23:30;;;;;;;8.63;5.97;;;;;;;18.26;74.20;100656.50;10338522;28;20049;-53
2023/10/09 22:28:33;;;;;;;10.27;6.35;;;;;;;18.04;73.28;100622.09;10337086;28;20148;-55
2023/10/09 22:33:50;;;;;;;8.32;6.72;;;;;;;18.21;74.12;100645.38;10335653;28;20065;-55
2023/10/09 22:38:55;;;;;;;8.43;6.30;;;;;;;18.18;74.75;100646.53;10337270;28;20240;-55
2023/10/09 22:43:57;;;;;;;9.65;7.32;;;;;;;18.15;75.07;100640.63;10339636;28;20697;-56
2023/10/09 22:49:13;;;;;;;11.82;6.82;;;;;;;18.12;75.20;100638.25;10338663;28;20527;-56
2023/10/09 22:54:22;;;;;;;10.30;7.55;;;;;;;18.08;74.69;100628.84;10335810;28;20159;-57
2023/10/09 22:59:26;;;;;;;9.75;6.90;;;;;;;18.04;74.55;100632.84;10338291;28;20498;-55
2023/10/09 23:04:36;;;;;;;8.57;7.07;;;;;;;18.02;75.01;100631.16;10339443;28;20194;-55
2023/10/09 23:09:48;;;;;;;12.40;7.03;;;;;;;17.94;74.50;100631.16;10332904;28;20380;-55
2023/10/09 23:14:51;;;;;;;9.00;6.90;;;;;;;17.98;75.29;100648.63;10340365;28;20096;-54
2023/10/09 23:19:56;;;;;;;8.48;6.68;;;;;;;17.98;76.05;100648.63;10334150;28;20041;-55
2023/10/09 23:25:10;;;;;;;11.10;7.28;;;;;;;17.96;75.79;100647.97;10339033;28;20132;-54
2023/10/09 23:30:25;;;;;;;13.30;7.28;;;;;;;17.94;76.12;100644.59;10343764;28;20282;-54
2023/10/09 23:35:43;;;;;;;11.43;7.00;;;;;;;17.91;75.51;100654.84;10336470;28;20458;-55
2023/10/09 23:40:46;;;;;;;11.90;7.47;;;;;;;17.88;76.22;100650.63;10337565;28;20772;-55
2023/10/09 23:45:56;;;;;;;9.65;7.68;;;;;;;17.84;76.35;100643.84;10331781;28;20777;-55
2023/10/09 23:51:01;;;;;;;9.00;6.07;;;;;;;17.78;76.46;100633.72;10332094;28;20406;-56
2023/10/09 23:56:09;;;;;;;10.02;6.68;;;;;;;17.80;75.95;100648.69;10332151;28;20170;-54
